sensor_id;sensor_type;location;lat;lon;timestamp;temperature;humidity
51615;DHT22;37695;52.960;6.188;2023-02-28T00:00:17;3.80;99.90
51615;DHT22;37695;52.960;6.188;2023-02-28T00:02:43;3.80;99.90
51615;DHT22;37695;52.960;6.188;2023-02-28T00:05:11;3.80;99.90
51615;DHT22;37695;52.960;6.188;2023-02-28T00:07:37;3.80;99.90
51615;DHT22;37695;52.960;6.188;2023-02-28T00:10:04;3.70;99.90
51615;DHT22;37695;52.960;6.188;2023-02-28T00:12:32;3.70;99.90
51615;DHT22;37695;52.960;6.188;2023-02-28T00:14:57;3.80;99.90
51615;DHT22;37695;52.960;6.188;2023-02-28T00:17:23;3.70;99.90
51615;DHT22;37695;52.960;6.188;2023-02-28T00:19:52;3.70;99.90
51615;DHT22;37695;52.960;6.188;2023-02-28T00:22:19;3.70;99.90
51615;DHT22;37695;52.960;6.188;2023-02-28T00:24:45;3.80;99.90
51615;DHT22;37695;52.960;6.188;2023-02-28T00:27:10;3.80;99.90
51615;DHT22;37695;52.960;6.188;2023-02-28T00:29:36;3.80;99.90
51615;DHT22;37695;52.960;6.188;2023-02-28T00:32:02;3.80;99.90
51615;DHT22;37695;52.960;6.188;2023-02-28T00:34:28;3.70;99.90
51615;DHT22;37695;52.960;6.188;2023-02-28T00:36:54;3.70;99.90
51615;DHT22;37695;52.960;6.188;2023-02-28T00:39:20;3.70;99.90
51615;DHT22;37695;52.960;6.188;2023-02-28T00:41:45;3.70;99.90
51615;DHT22;37695;52.960;6.188;2023-02-28T00:44:11;3.70;99.90
51615;DHT22;37695;52.960;6.188;2023-02-28T00:46:36;3.70;99.90
51615;DHT22;37695;52.960;6.188;2023-02-28T00:49:02;3.70;99.90
51615;DHT22;37695;52.960;6.188;2023-02-28T00:51:27;3.70;99.90
51615;DHT22;37695;52.960;6.188;2023-02-28T00:53:54;3.70;99.90
51615;DHT22;37695;52.960;6.188;2023-02-28T00:56:20;3.70;99.90
51615;DHT22;37695;52.960;6.188;2023-02-28T00:58:46;3.70;99.90
51615;DHT22;37695;52.960;6.188;2023-02-28T01:01:11;3.70;99.90
51615;DHT22;37695;52.960;6.188;2023-02-28T01:03:37;3.70;99.90
51615;DHT22;37695;52.960;6.188;2023-02-28T01:06:03;3.60;99.90
51615;DHT22;37695;52.960;6.188;2023-02-28T01:08:29;3.60;99.90
51615;DHT22;37695;52.960;6.188;2023-02-28T01:10:54;3.60;99.90
51615;DHT22;37695;52.960;6.188;2023-02-28T01:13:20;3.60;99.90
51615;DHT22;37695;52.960;6.188;2023-02-28T01:15:50;3.60;99.90
51615;DHT22;37695;52.960;6.188;2023-02-28T01:18:17;3.60;99.90
51615;DHT22;37695;52.960;6.188;2023-02-28T01:20:42;3.60;99.90
51615;DHT22;37695;52.960;6.188;2023-02-28T01:23:08;3.60;99.90
51615;DHT22;37695;52.960;6.188;2023-02-28T01:25:37;3.60;99.90
51615;DHT22;37695;52.960;6.188;2023-02-28T01:28:03;3.70;99.90
51615;DHT22;37695;52.960;6.188;2023-02-28T01:30:28;3.70;99.90
51615;DHT22;37695;52.960;6.188;2023-02-28T01:32:54;3.70;99.90
51615;DHT22;37695;52.960;6.188;2023-02-28T01:35:20;3.70;99.90
51615;DHT22;37695;52.960;6.188;2023-02-28T01:37:45;3.70;99.90
51615;DHT22;37695;52.960;6.188;2023-02-28T01:40:12;3.70;99.90
51615;DHT22;37695;52.960;6.188;2023-02-28T01:42:38;3.70;99.90
51615;DHT22;37695;52.960;6.188;2023-02-28T01:45:17;3.70;99.90
51615;DHT22;37695;52.960;6.188;2023-02-28T01:47:44;3.70;99.90
51615;DHT22;37695;52.960;6.188;2023-02-28T01:50:16;3.70;99.90
51615;DHT22;37695;52.960;6.188;2023-02-28T01:52:44;3.70;99.90
51615;DHT22;37695;52.960;6.188;2023-02-28T01:55:11;3.70;99.90
51615;DHT22;37695;52.960;6.188;2023-02-28T01:57:45;3.70;99.90
51615;DHT22;37695;52.960;6.188;2023-02-28T02:00:14;3.70;99.90
51615;DHT22;37695;52.960;6.188;2023-02-28T02:02:43;3.70;99.90
51615;DHT22;37695;52.960;6.188;2023-02-28T02:05:15;3.70;99.90
51615;DHT22;37695;52.960;6.188;2023-02-28T02:07:43;3.70;99.90
51615;DHT22;37695;52.960;6.188;2023-02-28T02:15:54;3.70;99.90
51615;DHT22;37695;52.960;6.188;2023-02-28T02:18:34;3.70;99.90
51615;DHT22;37695;52.960;6.188;2023-02-28T02:21:40;3.70;99.90
51615;DHT22;37695;52.960;6.188;2023-02-28T02:35:26;3.80;99.90
51615;DHT22;37695;52.960;6.188;2023-02-28T02:40:42;3.70;99.90
51615;DHT22;37695;52.960;6.188;2023-02-28T02:43:19;3.70;99.90
51615;DHT22;37695;52.960;6.188;2023-02-28T02:45:50;3.70;99.90
51615;DHT22;37695;52.960;6.188;2023-02-28T02:48:20;3.80;99.90
51615;DHT22;37695;52.960;6.188;2023-02-28T02:50:54;3.80;99.90
51615;DHT22;37695;52.960;6.188;2023-02-28T02:53:29;3.80;99.90
51615;DHT22;37695;52.960;6.188;2023-02-28T02:55:56;3.70;99.90
51615;DHT22;37695;52.960;6.188;2023-02-28T02:58:27;3.70;99.90
51615;DHT22;37695;52.960;6.188;2023-02-28T03:00:57;3.70;99.90
51615;DHT22;37695;52.960;6.188;2023-02-28T03:03:24;3.70;99.90
51615;DHT22;37695;52.960;6.188;2023-02-28T03:05:58;3.70;99.90
51615;DHT22;37695;52.960;6.188;2023-02-28T03:08:24;3.80;99.90
51615;DHT22;37695;52.960;6.188;2023-02-28T03:10:52;3.70;99.90
51615;DHT22;37695;52.960;6.188;2023-02-28T03:18:51;3.70;99.90
51615;DHT22;37695;52.960;6.188;2023-02-28T03:21:34;3.80;99.90
51615;DHT22;37695;52.960;6.188;2023-02-28T03:24:11;3.80;99.90
51615;DHT22;37695;52.960;6.188;2023-02-28T03:26:41;3.80;99.90
51615;DHT22;37695;52.960;6.188;2023-02-28T03:29:15;3.80;99.90
51615;DHT22;37695;52.960;6.188;2023-02-28T03:31:48;3.80;99.90
51615;DHT22;37695;52.960;6.188;2023-02-28T03:34:29;3.80;99.90
51615;DHT22;37695;52.960;6.188;2023-02-28T03:37:01;3.80;99.90
51615;DHT22;37695;52.960;6.188;2023-02-28T03:40:04;3.80;99.90
51615;DHT22;37695;52.960;6.188;2023-02-28T03:42:24;3.80;99.90
51615;DHT22;37695;52.960;6.188;2023-02-28T03:44:59;3.80;99.90
51615;DHT22;37695;52.960;6.188;2023-02-28T03:47:49;3.80;99.90
51615;DHT22;37695;52.960;6.188;2023-02-28T03:50:26;3.80;99.90
51615;DHT22;37695;52.960;6.188;2023-02-28T03:53:45;3.80;99.90
51615;DHT22;37695;52.960;6.188;2023-02-28T03:55:49;3.90;99.90
51615;DHT22;37695;52.960;6.188;2023-02-28T03:58:24;3.80;99.90
51615;DHT22;37695;52.960;6.188;2023-02-28T04:00:59;3.90;99.90
51615;DHT22;37695;52.960;6.188;2023-02-28T04:03:37;3.90;99.90
51615;DHT22;37695;52.960;6.188;2023-02-28T04:06:07;3.90;99.90
51615;DHT22;37695;52.960;6.188;2023-02-28T04:08:33;3.80;99.90
51615;DHT22;37695;52.960;6.188;2023-02-28T04:11:06;3.80;99.90
51615;DHT22;37695;52.960;6.188;2023-02-28T04:13:36;3.70;99.90
51615;DHT22;37695;52.960;6.188;2023-02-28T04:16:06;3.60;99.90
51615;DHT22;37695;52.960;6.188;2023-02-28T04:18:37;3.70;99.90
51615;DHT22;37695;52.960;6.188;2023-02-28T04:21:03;3.70;99.90
51615;DHT22;37695;52.960;6.188;2023-02-28T04:23:30;3.60;99.90
51615;DHT22;37695;52.960;6.188;2023-02-28T04:25:55;3.60;99.90
51615;DHT22;37695;52.960;6.188;2023-02-28T04:28:21;3.60;99.90
51615;DHT22;37695;52.960;6.188;2023-02-28T04:30:47;3.60;99.90
51615;DHT22;37695;52.960;6.188;2023-02-28T04:33:12;3.60;99.90
51615;DHT22;37695;52.960;6.188;2023-02-28T04:35:38;3.60;99.90
51615;DHT22;37695;52.960;6.188;2023-02-28T04:38:03;3.60;99.90
51615;DHT22;37695;52.960;6.188;2023-02-28T04:40:29;3.60;99.90
51615;DHT22;37695;52.960;6.188;2023-02-28T04:42:54;3.60;99.90
51615;DHT22;37695;52.960;6.188;2023-02-28T04:45:20;3.50;99.90
51615;DHT22;37695;52.960;6.188;2023-02-28T04:47:45;3.50;99.90
51615;DHT22;37695;52.960;6.188;2023-02-28T04:50:11;3.50;99.90
51615;DHT22;37695;52.960;6.188;2023-02-28T04:52:36;3.50;99.90
51615;DHT22;37695;52.960;6.188;2023-02-28T04:55:02;3.50;99.90
51615;DHT22;37695;52.960;6.188;2023-02-28T04:57:28;3.40;99.90
51615;DHT22;37695;52.960;6.188;2023-02-28T04:59:53;3.50;99.90
51615;DHT22;37695;52.960;6.188;2023-02-28T05:02:19;3.50;99.90
51615;DHT22;37695;52.960;6.188;2023-02-28T05:04:46;3.50;99.90
51615;DHT22;37695;52.960;6.188;2023-02-28T05:07:11;3.50;99.90
51615;DHT22;37695;52.960;6.188;2023-02-28T05:09:37;3.40;99.90
51615;DHT22;37695;52.960;6.188;2023-02-28T05:12:02;3.40;99.90
51615;DHT22;37695;52.960;6.188;2023-02-28T05:14:28;3.40;99.90
51615;DHT22;37695;52.960;6.188;2023-02-28T05:16:54;3.30;99.90
51615;DHT22;37695;52.960;6.188;2023-02-28T05:19:20;3.30;99.90
51615;DHT22;37695;52.960;6.188;2023-02-28T05:21:54;3.30;99.90
51615;DHT22;37695;52.960;6.188;2023-02-28T05:24:20;3.30;99.90
51615;DHT22;37695;52.960;6.188;2023-02-28T05:26:50;3.30;99.90
51615;DHT22;37695;52.960;6.188;2023-02-28T05:29:17;3.20;99.90
51615;DHT22;37695;52.960;6.188;2023-02-28T05:31:42;3.20;99.90
51615;DHT22;37695;52.960;6.188;2023-02-28T05:34:08;3.20;99.90
51615;DHT22;37695;52.960;6.188;2023-02-28T05:36:37;3.20;99.90
51615;DHT22;37695;52.960;6.188;2023-02-28T05:39:02;3.10;99.90
51615;DHT22;37695;52.960;6.188;2023-02-28T05:41:28;3.60;99.90
51615;DHT22;37695;52.960;6.188;2023-02-28T05:43:54;3.10;99.90
51615;DHT22;37695;52.960;6.188;2023-02-28T05:46:19;3.10;99.90
51615;DHT22;37695;52.960;6.188;2023-02-28T05:48:47;3.10;99.90
51615;DHT22;37695;52.960;6.188;2023-02-28T05:51:12;3.00;99.90
51615;DHT22;37695;52.960;6.188;2023-02-28T05:53:38;3.00;99.90
51615;DHT22;37695;52.960;6.188;2023-02-28T05:56:04;3.00;99.90
51615;DHT22;37695;52.960;6.188;2023-02-28T05:58:30;3.00;99.90
51615;DHT22;37695;52.960;6.188;2023-02-28T06:00:59;3.00;99.90
51615;DHT22;37695;52.960;6.188;2023-02-28T06:03:25;3.00;99.90
51615;DHT22;37695;52.960;6.188;2023-02-28T06:05:51;3.00;99.90
51615;DHT22;37695;52.960;6.188;2023-02-28T06:08:16;2.90;99.90
51615;DHT22;37695;52.960;6.188;2023-02-28T06:10:42;2.90;99.90
51615;DHT22;37695;52.960;6.188;2023-02-28T06:13:08;2.90;99.90
51615;DHT22;37695;52.960;6.188;2023-02-28T06:15:33;2.90;99.90
51615;DHT22;37695;52.960;6.188;2023-02-28T06:17:59;2.80;99.90
51615;DHT22;37695;52.960;6.188;2023-02-28T06:20:26;2.80;99.90
51615;DHT22;37695;52.960;6.188;2023-02-28T06:22:55;2.80;99.90
51615;DHT22;37695;52.960;6.188;2023-02-28T06:25:21;2.80;99.90
51615;DHT22;37695;52.960;6.188;2023-02-28T06:27:47;2.80;99.90
51615;DHT22;37695;52.960;6.188;2023-02-28T06:30:13;2.80;99.90
51615;DHT22;37695;52.960;6.188;2023-02-28T06:32:39;2.70;99.90
51615;DHT22;37695;52.960;6.188;2023-02-28T06:35:05;2.70;99.90
51615;DHT22;37695;52.960;6.188;2023-02-28T06:37:31;2.70;99.90
51615;DHT22;37695;52.960;6.188;2023-02-28T06:39:57;2.70;99.90
51615;DHT22;37695;52.960;6.188;2023-02-28T06:42:24;2.70;99.90
51615;DHT22;37695;52.960;6.188;2023-02-28T06:44:54;2.70;99.90
51615;DHT22;37695;52.960;6.188;2023-02-28T06:47:21;2.70;99.90
51615;DHT22;37695;52.960;6.188;2023-02-28T06:49:47;2.70;99.90
51615;DHT22;37695;52.960;6.188;2023-02-28T06:52:12;2.70;99.90
51615;DHT22;37695;52.960;6.188;2023-02-28T06:54:38;2.70;99.90
51615;DHT22;37695;52.960;6.188;2023-02-28T06:57:03;2.60;99.90
51615;DHT22;37695;52.960;6.188;2023-02-28T06:59:30;2.60;99.90
51615;DHT22;37695;52.960;6.188;2023-02-28T07:01:55;2.60;99.90
51615;DHT22;37695;52.960;6.188;2023-02-28T07:04:21;2.60;99.90
51615;DHT22;37695;52.960;6.188;2023-02-28T07:06:47;2.70;99.90
51615;DHT22;37695;52.960;6.188;2023-02-28T07:09:13;2.60;99.90
51615;DHT22;37695;52.960;6.188;2023-02-28T07:11:39;2.60;99.90
51615;DHT22;37695;52.960;6.188;2023-02-28T07:14:06;2.70;99.90
51615;DHT22;37695;52.960;6.188;2023-02-28T07:16:32;2.60;99.90
51615;DHT22;37695;52.960;6.188;2023-02-28T07:18:57;2.80;99.90
51615;DHT22;37695;52.960;6.188;2023-02-28T07:21:23;2.70;99.90
51615;DHT22;37695;52.960;6.188;2023-02-28T07:23:49;2.80;99.90
51615;DHT22;37695;52.960;6.188;2023-02-28T07:26:16;2.90;99.90
51615;DHT22;37695;52.960;6.188;2023-02-28T07:28:43;2.90;99.90
51615;DHT22;37695;52.960;6.188;2023-02-28T07:31:09;2.90;99.90
51615;DHT22;37695;52.960;6.188;2023-02-28T07:33:35;3.00;99.90
51615;DHT22;37695;52.960;6.188;2023-02-28T07:36:06;3.00;99.90
51615;DHT22;37695;52.960;6.188;2023-02-28T07:38:37;3.00;99.90
51615;DHT22;37695;52.960;6.188;2023-02-28T07:41:03;3.00;99.90
51615;DHT22;37695;52.960;6.188;2023-02-28T07:43:32;3.00;99.90
51615;DHT22;37695;52.960;6.188;2023-02-28T07:46:05;3.00;99.90
51615;DHT22;37695;52.960;6.188;2023-02-28T07:48:31;3.00;99.90
51615;DHT22;37695;52.960;6.188;2023-02-28T07:50:58;3.00;99.90
51615;DHT22;37695;52.960;6.188;2023-02-28T07:53:24;3.10;99.90
51615;DHT22;37695;52.960;6.188;2023-02-28T07:55:49;3.20;99.90
51615;DHT22;37695;52.960;6.188;2023-02-28T07:58:15;3.30;99.90
51615;DHT22;37695;52.960;6.188;2023-02-28T08:00:43;3.30;99.90
51615;DHT22;37695;52.960;6.188;2023-02-28T08:03:12;3.30;99.90
51615;DHT22;37695;52.960;6.188;2023-02-28T08:05:40;3.30;99.90
51615;DHT22;37695;52.960;6.188;2023-02-28T08:08:07;3.30;99.90
51615;DHT22;37695;52.960;6.188;2023-02-28T08:10:33;3.30;99.90
51615;DHT22;37695;52.960;6.188;2023-02-28T08:12:59;3.30;99.90
51615;DHT22;37695;52.960;6.188;2023-02-28T08:15:24;3.40;99.90
51615;DHT22;37695;52.960;6.188;2023-02-28T08:17:50;3.40;99.90
51615;DHT22;37695;52.960;6.188;2023-02-28T08:20:15;3.50;99.90
51615;DHT22;37695;52.960;6.188;2023-02-28T08:22:41;3.50;99.90
51615;DHT22;37695;52.960;6.188;2023-02-28T08:25:08;3.50;99.90
51615;DHT22;37695;52.960;6.188;2023-02-28T08:27:33;3.60;99.90
51615;DHT22;37695;52.960;6.188;2023-02-28T08:29:59;3.60;99.90
51615;DHT22;37695;52.960;6.188;2023-02-28T08:32:24;3.60;99.90
51615;DHT22;37695;52.960;6.188;2023-02-28T08:34:50;3.70;99.90
51615;DHT22;37695;52.960;6.188;2023-02-28T08:37:16;3.60;99.90
51615;DHT22;37695;52.960;6.188;2023-02-28T08:39:42;3.70;99.90
51615;DHT22;37695;52.960;6.188;2023-02-28T08:42:07;3.70;99.90
51615;DHT22;37695;52.960;6.188;2023-02-28T08:44:33;3.70;99.90
51615;DHT22;37695;52.960;6.188;2023-02-28T08:46:58;3.70;99.90
51615;DHT22;37695;52.960;6.188;2023-02-28T08:49:24;3.80;99.90
51615;DHT22;37695;52.960;6.188;2023-02-28T08:51:49;3.80;99.90
51615;DHT22;37695;52.960;6.188;2023-02-28T08:54:15;3.80;99.90
51615;DHT22;37695;52.960;6.188;2023-02-28T08:56:45;3.80;99.90
51615;DHT22;37695;52.960;6.188;2023-02-28T08:59:12;3.80;99.90
51615;DHT22;37695;52.960;6.188;2023-02-28T09:01:37;3.90;99.90
51615;DHT22;37695;52.960;6.188;2023-02-28T09:04:03;3.90;99.90
51615;DHT22;37695;52.960;6.188;2023-02-28T09:06:29;4.00;99.90
51615;DHT22;37695;52.960;6.188;2023-02-28T09:08:58;4.10;99.90
51615;DHT22;37695;52.960;6.188;2023-02-28T09:11:25;4.20;99.90
51615;DHT22;37695;52.960;6.188;2023-02-28T09:13:50;4.30;99.90
51615;DHT22;37695;52.960;6.188;2023-02-28T09:16:16;4.30;99.90
51615;DHT22;37695;52.960;6.188;2023-02-28T09:18:42;4.30;99.90
51615;DHT22;37695;52.960;6.188;2023-02-28T09:21:15;4.40;99.90
51615;DHT22;37695;52.960;6.188;2023-02-28T09:23:42;4.40;99.90
51615;DHT22;37695;52.960;6.188;2023-02-28T09:26:11;4.50;99.90
51615;DHT22;37695;52.960;6.188;2023-02-28T09:28:38;4.50;99.90
51615;DHT22;37695;52.960;6.188;2023-02-28T09:31:03;4.50;99.90
51615;DHT22;37695;52.960;6.188;2023-02-28T09:33:30;4.50;99.90
51615;DHT22;37695;52.960;6.188;2023-02-28T09:36:00;4.60;99.90
51615;DHT22;37695;52.960;6.188;2023-02-28T09:38:26;4.60;99.90
51615;DHT22;37695;52.960;6.188;2023-02-28T09:40:56;4.80;99.90
51615;DHT22;37695;52.960;6.188;2023-02-28T09:43:25;4.90;99.90
51615;DHT22;37695;52.960;6.188;2023-02-28T09:46:07;4.90;99.90
51615;DHT22;37695;52.960;6.188;2023-02-28T09:48:37;4.90;99.90
51615;DHT22;37695;52.960;6.188;2023-02-28T09:51:30;5.00;99.90
51615;DHT22;37695;52.960;6.188;2023-02-28T09:53:58;5.00;99.90
51615;DHT22;37695;52.960;6.188;2023-02-28T09:56:31;5.10;99.90
51615;DHT22;37695;52.960;6.188;2023-02-28T10:02:11;5.30;99.90
51615;DHT22;37695;52.960;6.188;2023-02-28T10:04:52;5.40;99.90
51615;DHT22;37695;52.960;6.188;2023-02-28T10:10:28;5.60;99.90
51615;DHT22;37695;52.960;6.188;2023-02-28T10:12:58;5.60;99.90
51615;DHT22;37695;52.960;6.188;2023-02-28T10:15:26;5.80;99.90
51615;DHT22;37695;52.960;6.188;2023-02-28T10:18:03;5.90;99.90
51615;DHT22;37695;52.960;6.188;2023-02-28T10:20:33;6.10;99.90
51615;DHT22;37695;52.960;6.188;2023-02-28T10:25:48;6.40;99.90
51615;DHT22;37695;52.960;6.188;2023-02-28T10:28:16;6.40;99.90
51615;DHT22;37695;52.960;6.188;2023-02-28T10:30:52;6.40;99.90
51615;DHT22;37695;52.960;6.188;2023-02-28T10:35:46;6.50;99.90
51615;DHT22;37695;52.960;6.188;2023-02-28T10:38:28;6.50;99.90
51615;DHT22;37695;52.960;6.188;2023-02-28T10:41:32;6.40;99.90
51615;DHT22;37695;52.960;6.188;2023-02-28T10:44:21;6.40;99.90
51615;DHT22;37695;52.960;6.188;2023-02-28T10:46:46;6.50;99.90
51615;DHT22;37695;52.960;6.188;2023-02-28T10:49:24;6.50;99.90
51615;DHT22;37695;52.960;6.188;2023-02-28T10:51:57;6.60;99.90
51615;DHT22;37695;52.960;6.188;2023-02-28T10:54:29;6.60;99.90
51615;DHT22;37695;52.960;6.188;2023-02-28T10:57:18;6.70;99.90
51615;DHT22;37695;52.960;6.188;2023-02-28T10:59:44;6.70;99.90
51615;DHT22;37695;52.960;6.188;2023-02-28T11:02:31;6.80;99.90
51615;DHT22;37695;52.960;6.188;2023-02-28T11:04:58;6.80;99.90
51615;DHT22;37695;52.960;6.188;2023-02-28T11:07:25;6.70;99.90
51615;DHT22;37695;52.960;6.188;2023-02-28T11:09:52;6.80;99.90
51615;DHT22;37695;52.960;6.188;2023-02-28T11:12:28;6.80;99.90
51615;DHT22;37695;52.960;6.188;2023-02-28T11:14:58;6.80;99.90
51615;DHT22;37695;52.960;6.188;2023-02-28T11:17:28;6.90;99.90
51615;DHT22;37695;52.960;6.188;2023-02-28T11:19:58;6.90;99.90
51615;DHT22;37695;52.960;6.188;2023-02-28T11:22:31;6.90;99.90
51615;DHT22;37695;52.960;6.188;2023-02-28T11:25:00;6.90;99.90
51615;DHT22;37695;52.960;6.188;2023-02-28T11:29:55;7.00;99.90
51615;DHT22;37695;52.960;6.188;2023-02-28T11:32:25;7.00;99.90
51615;DHT22;37695;52.960;6.188;2023-02-28T11:37:37;7.00;99.90
51615;DHT22;37695;52.960;6.188;2023-02-28T11:40:14;7.10;99.90
51615;DHT22;37695;52.960;6.188;2023-02-28T11:42:57;7.00;99.90
51615;DHT22;37695;52.960;6.188;2023-02-28T11:45:36;7.00;99.90
51615;DHT22;37695;52.960;6.188;2023-02-28T11:53:43;7.20;99.90
51615;DHT22;37695;52.960;6.188;2023-02-28T11:56:43;7.20;99.90
51615;DHT22;37695;52.960;6.188;2023-02-28T12:02:35;7.30;99.90
51615;DHT22;37695;52.960;6.188;2023-02-28T12:05:21;7.30;99.90
51615;DHT22;37695;52.960;6.188;2023-02-28T12:10:29;7.20;99.90
51615;DHT22;37695;52.960;6.188;2023-02-28T12:13:12;7.10;99.90
51615;DHT22;37695;52.960;6.188;2023-02-28T12:16:19;7.00;99.90
51615;DHT22;37695;52.960;6.188;2023-02-28T12:19:06;7.00;99.90
51615;DHT22;37695;52.960;6.188;2023-02-28T12:24:39;6.90;99.90
51615;DHT22;37695;52.960;6.188;2023-02-28T12:27:13;6.90;99.90
51615;DHT22;37695;52.960;6.188;2023-02-28T12:29:50;7.10;99.90
51615;DHT22;37695;52.960;6.188;2023-02-28T12:32:22;7.10;99.90
51615;DHT22;37695;52.960;6.188;2023-02-28T12:34:53;7.20;99.90
51615;DHT22;37695;52.960;6.188;2023-02-28T12:37:25;7.30;99.90
51615;DHT22;37695;52.960;6.188;2023-02-28T12:40:00;7.30;99.90
51615;DHT22;37695;52.960;6.188;2023-02-28T12:42:30;7.40;99.90
51615;DHT22;37695;52.960;6.188;2023-02-28T12:45:01;7.50;99.90
51615;DHT22;37695;52.960;6.188;2023-02-28T12:47:27;7.40;99.90
51615;DHT22;37695;52.960;6.188;2023-02-28T12:49:58;7.30;99.90
51615;DHT22;37695;52.960;6.188;2023-02-28T12:52:42;7.20;99.90
51615;DHT22;37695;52.960;6.188;2023-02-28T12:58:29;7.30;99.90
51615;DHT22;37695;52.960;6.188;2023-02-28T13:01:09;7.40;99.90
51615;DHT22;37695;52.960;6.188;2023-02-28T13:03:46;7.30;99.90
51615;DHT22;37695;52.960;6.188;2023-02-28T13:09:05;7.00;99.90
51615;DHT22;37695;52.960;6.188;2023-02-28T13:16:57;6.60;99.90
51615;DHT22;37695;52.960;6.188;2023-02-28T13:19:26;6.60;99.90
51615;DHT22;37695;52.960;6.188;2023-02-28T13:21:53;6.70;99.90
51615;DHT22;37695;52.960;6.188;2023-02-28T13:24:42;6.80;99.90
51615;DHT22;37695;52.960;6.188;2023-02-28T13:29:38;7.20;99.90
51615;DHT22;37695;52.960;6.188;2023-02-28T13:34:40;7.40;99.90
51615;DHT22;37695;52.960;6.188;2023-02-28T13:39:47;7.60;99.90
51615;DHT22;37695;52.960;6.188;2023-02-28T13:50:24;8.40;99.90
51615;DHT22;37695;52.960;6.188;2023-02-28T14:04:02;8.70;99.90
51615;DHT22;37695;52.960;6.188;2023-02-28T14:06:31;8.80;99.90
51615;DHT22;37695;52.960;6.188;2023-02-28T14:09:03;8.70;99.90
51615;DHT22;37695;52.960;6.188;2023-02-28T14:11:40;8.70;99.90
51615;DHT22;37695;52.960;6.188;2023-02-28T14:14:08;8.50;99.90
51615;DHT22;37695;52.960;6.188;2023-02-28T14:16:47;8.40;99.90
51615;DHT22;37695;52.960;6.188;2023-02-28T14:24:59;8.00;99.90
51615;DHT22;37695;52.960;6.188;2023-02-28T14:30:40;7.70;99.90
51615;DHT22;37695;52.960;6.188;2023-02-28T14:33:35;7.80;99.90
51615;DHT22;37695;52.960;6.188;2023-02-28T14:38:45;7.90;99.90
51615;DHT22;37695;52.960;6.188;2023-02-28T14:41:33;7.90;99.90
51615;DHT22;37695;52.960;6.188;2023-02-28T14:44:31;7.90;99.90
51615;DHT22;37695;52.960;6.188;2023-02-28T14:47:02;8.00;99.90
51615;DHT22;37695;52.960;6.188;2023-02-28T14:49:58;8.00;99.90
51615;DHT22;37695;52.960;6.188;2023-02-28T14:52:26;8.20;99.90
51615;DHT22;37695;52.960;6.188;2023-02-28T14:54:58;8.20;99.90
51615;DHT22;37695;52.960;6.188;2023-02-28T14:57:30;8.20;99.90
51615;DHT22;37695;52.960;6.188;2023-02-28T15:02:42;8.30;99.90
51615;DHT22;37695;52.960;6.188;2023-02-28T15:07:47;8.30;99.90
51615;DHT22;37695;52.960;6.188;2023-02-28T15:12:48;8.40;99.90
51615;DHT22;37695;52.960;6.188;2023-02-28T15:15:16;8.40;99.90
51615;DHT22;37695;52.960;6.188;2023-02-28T15:17:45;8.30;99.90
51615;DHT22;37695;52.960;6.188;2023-02-28T15:20:13;8.30;99.90
51615;DHT22;37695;52.960;6.188;2023-02-28T15:22:39;8.20;99.90
51615;DHT22;37695;52.960;6.188;2023-02-28T15:25:06;8.20;99.90
51615;DHT22;37695;52.960;6.188;2023-02-28T15:27:38;8.10;99.90
51615;DHT22;37695;52.960;6.188;2023-02-28T15:30:12;8.00;99.90
51615;DHT22;37695;52.960;6.188;2023-02-28T15:32:39;7.80;99.90
51615;DHT22;37695;52.960;6.188;2023-02-28T15:35:27;7.60;99.90
51615;DHT22;37695;52.960;6.188;2023-02-28T15:37:55;7.60;99.90
51615;DHT22;37695;52.960;6.188;2023-02-28T15:40:30;7.60;99.90
51615;DHT22;37695;52.960;6.188;2023-02-28T15:48:02;7.70;99.90
51615;DHT22;37695;52.960;6.188;2023-02-28T15:50:28;7.80;99.90
51615;DHT22;37695;52.960;6.188;2023-02-28T15:52:54;7.80;99.90
51615;DHT22;37695;52.960;6.188;2023-02-28T15:55:23;7.80;99.90
51615;DHT22;37695;52.960;6.188;2023-02-28T15:57:55;7.90;99.90
51615;DHT22;37695;52.960;6.188;2023-02-28T16:00:24;8.10;99.90
51615;DHT22;37695;52.960;6.188;2023-02-28T16:02:50;8.20;99.90
51615;DHT22;37695;52.960;6.188;2023-02-28T16:05:30;8.20;99.90
51615;DHT22;37695;52.960;6.188;2023-02-28T16:08:14;8.20;99.90
51615;DHT22;37695;52.960;6.188;2023-02-28T16:10:40;8.30;99.90
51615;DHT22;37695;52.960;6.188;2023-02-28T16:13:08;8.30;99.90
51615;DHT22;37695;52.960;6.188;2023-02-28T16:15:38;8.40;99.90
51615;DHT22;37695;52.960;6.188;2023-02-28T16:18:10;8.60;99.90
51615;DHT22;37695;52.960;6.188;2023-02-28T16:20:36;8.50;99.90
51615;DHT22;37695;52.960;6.188;2023-02-28T16:23:01;8.40;99.90
51615;DHT22;37695;52.960;6.188;2023-02-28T16:25:38;8.40;99.90
51615;DHT22;37695;52.960;6.188;2023-02-28T16:28:12;8.40;99.90
51615;DHT22;37695;52.960;6.188;2023-02-28T16:30:40;8.20;99.90
51615;DHT22;37695;52.960;6.188;2023-02-28T16:33:07;8.00;99.90
51615;DHT22;37695;52.960;6.188;2023-02-28T16:35:33;7.90;99.90
51615;DHT22;37695;52.960;6.188;2023-02-28T16:37:59;7.90;99.90
51615;DHT22;37695;52.960;6.188;2023-02-28T16:40:25;8.00;99.90
51615;DHT22;37695;52.960;6.188;2023-02-28T16:42:53;8.10;99.90
51615;DHT22;37695;52.960;6.188;2023-02-28T16:45:23;8.10;99.90
51615;DHT22;37695;52.960;6.188;2023-02-28T16:47:49;8.10;99.90
51615;DHT22;37695;52.960;6.188;2023-02-28T16:50:21;8.10;99.90
51615;DHT22;37695;52.960;6.188;2023-02-28T16:52:48;8.10;99.90
51615;DHT22;37695;52.960;6.188;2023-02-28T16:55:15;7.90;99.90
51615;DHT22;37695;52.960;6.188;2023-02-28T16:57:46;7.50;99.90
51615;DHT22;37695;52.960;6.188;2023-02-28T17:00:14;7.20;99.90
51615;DHT22;37695;52.960;6.188;2023-02-28T17:02:40;6.80;99.90
51615;DHT22;37695;52.960;6.188;2023-02-28T17:05:06;6.50;99.90
51615;DHT22;37695;52.960;6.188;2023-02-28T17:07:32;6.80;99.90
51615;DHT22;37695;52.960;6.188;2023-02-28T17:09:58;6.30;99.90
51615;DHT22;37695;52.960;6.188;2023-02-28T17:12:24;6.10;99.90
51615;DHT22;37695;52.960;6.188;2023-02-28T17:14:50;6.00;99.90
51615;DHT22;37695;52.960;6.188;2023-02-28T17:17:21;5.90;99.90
51615;DHT22;37695;52.960;6.188;2023-02-28T17:19:47;5.80;99.90
51615;DHT22;37695;52.960;6.188;2023-02-28T17:22:13;5.70;99.90
51615;DHT22;37695;52.960;6.188;2023-02-28T17:24:39;5.60;99.90
51615;DHT22;37695;52.960;6.188;2023-02-28T17:27:04;5.40;99.90
51615;DHT22;37695;52.960;6.188;2023-02-28T17:29:30;5.20;99.90
51615;DHT22;37695;52.960;6.188;2023-02-28T17:31:56;5.10;99.90
51615;DHT22;37695;52.960;6.188;2023-02-28T17:34:21;4.90;99.90
51615;DHT22;37695;52.960;6.188;2023-02-28T17:36:50;4.80;99.90
51615;DHT22;37695;52.960;6.188;2023-02-28T17:39:18;4.60;99.90
51615;DHT22;37695;52.960;6.188;2023-02-28T17:41:54;4.50;99.90
51615;DHT22;37695;52.960;6.188;2023-02-28T17:44:20;4.30;99.90
51615;DHT22;37695;52.960;6.188;2023-02-28T17:46:47;4.20;99.90
51615;DHT22;37695;52.960;6.188;2023-02-28T17:49:12;4.00;99.90
51615;DHT22;37695;52.960;6.188;2023-02-28T17:51:38;3.90;99.90
51615;DHT22;37695;52.960;6.188;2023-02-28T17:54:04;3.80;99.90
51615;DHT22;37695;52.960;6.188;2023-02-28T17:56:30;3.80;99.90
51615;DHT22;37695;52.960;6.188;2023-02-28T17:58:56;3.70;99.90